createdAt,value
2023-04-08T00:02:00.657Z,7.78
2023-04-08T00:04:28.148Z,7.32
2023-04-08T00:06:56.584Z,7.38
2023-04-08T00:09:23.821Z,7.20
2023-04-08T00:11:53.512Z,6.82
2023-04-08T00:14:20.775Z,7.10
2023-04-08T00:16:48.024Z,7.97
2023-04-08T00:19:15.243Z,8.23
2023-04-08T00:21:42.399Z,7.95
2023-04-08T00:24:09.928Z,8.57
2023-04-08T00:26:38.012Z,9.30
2023-04-08T00:29:05.399Z,9.35
2023-04-08T00:31:32.897Z,9.40
2023-04-08T00:34:00.228Z,9.65
2023-04-08T00:36:28.073Z,10.98
2023-04-08T00:38:55.332Z,9.95
2023-04-08T00:41:22.565Z,10.25
2023-04-08T00:43:49.934Z,10.23
2023-04-08T00:46:17.431Z,10.45
2023-04-08T00:48:44.873Z,9.85
2023-04-08T00:51:12.868Z,9.73
2023-04-08T00:53:40.309Z,9.45
2023-04-08T00:56:07.580Z,9.27
2023-04-08T00:58:34.911Z,9.75
2023-04-08T01:01:13.436Z,7.10
2023-04-08T01:03:57.519Z,7.97
2023-04-08T01:06:47.638Z,8.80
2023-04-08T01:09:19.877Z,8.15
2023-04-08T01:11:51.000Z,8.77
2023-04-08T01:14:23.913Z,6.43
2023-04-08T01:16:56.272Z,8.68
2023-04-08T01:19:29.978Z,8.32
2023-04-08T01:22:06.405Z,7.40
2023-04-08T01:24:40.469Z,7.13
2023-04-08T01:27:10.391Z,5.10
2023-04-08T01:29:39.387Z,6.05
2023-04-08T01:32:08.989Z,6.38
2023-04-08T01:34:38.134Z,6.45
2023-04-08T01:37:07.731Z,6.50
2023-04-08T01:39:36.532Z,7.63
2023-04-08T01:42:04.165Z,7.05
2023-04-08T01:44:34.170Z,7.05
2023-04-08T01:47:02.800Z,6.07
2023-04-08T01:49:31.272Z,6.10
2023-04-08T01:52:01.085Z,6.63
2023-04-08T01:54:28.353Z,6.93
2023-04-08T01:56:59.023Z,7.10
2023-04-08T01:59:32.112Z,6.53
2023-04-08T02:02:01.438Z,6.20
2023-04-08T02:04:29.438Z,7.10
2023-04-08T02:06:58.225Z,6.47
2023-04-08T02:09:25.802Z,6.03
2023-04-08T02:11:53.195Z,5.88
2023-04-08T02:14:20.663Z,6.80
2023-04-08T02:16:47.974Z,6.47
2023-04-08T02:19:24.722Z,6.03
2023-04-08T02:22:00.094Z,5.38
2023-04-08T02:24:30.084Z,5.75
2023-04-08T02:27:01.185Z,5.82
2023-04-08T02:29:32.186Z,5.10
2023-04-08T02:32:01.901Z,5.43
2023-04-08T02:34:30.742Z,5.40
2023-04-08T02:36:58.421Z,5.43
2023-04-08T02:39:34.854Z,5.72
2023-04-08T02:42:02.360Z,5.10
2023-04-08T02:44:29.690Z,5.70
2023-04-08T02:47:01.868Z,6.10
2023-04-08T02:49:29.100Z,4.78
2023-04-08T02:51:58.012Z,5.80
2023-04-08T02:54:25.440Z,6.10
2023-04-08T02:56:52.821Z,5.03
2023-04-08T02:59:20.132Z,5.80
2023-04-08T03:01:47.633Z,4.60
2023-04-08T03:04:14.964Z,4.65
2023-04-08T03:06:42.351Z,4.85
2023-04-08T03:09:10.048Z,5.50
2023-04-08T03:11:37.308Z,6.32
2023-04-08T03:14:04.599Z,5.57
2023-04-08T03:16:31.888Z,5.45
2023-04-08T03:18:59.172Z,6.10
2023-04-08T03:21:27.668Z,7.13
2023-04-08T03:23:54.905Z,5.70
2023-04-08T03:26:22.358Z,7.07
2023-04-08T03:28:49.901Z,5.32
2023-04-08T03:31:17.593Z,5.60
2023-04-08T03:33:44.910Z,4.03
2023-04-08T03:36:12.569Z,6.60
2023-04-08T03:38:39.825Z,6.93
2023-04-08T03:41:07.129Z,6.70
2023-04-08T03:43:35.678Z,7.30
2023-04-08T03:46:04.770Z,5.75
2023-04-08T03:48:32.824Z,6.80
2023-04-08T03:51:00.491Z,6.43
2023-04-08T03:53:29.651Z,7.10
2023-04-08T03:55:57.760Z,5.50
2023-04-08T03:58:25.429Z,5.25
2023-04-08T04:00:52.675Z,7.00
2023-04-08T04:03:20.252Z,5.25
2023-04-08T04:05:47.690Z,7.38
2023-04-08T04:08:14.862Z,5.03
2023-04-08T04:10:42.186Z,4.70
2023-04-08T04:13:09.433Z,6.07
2023-04-08T04:15:40.866Z,4.45
2023-04-08T04:18:08.514Z,7.00
2023-04-08T04:20:36.678Z,6.75
2023-04-08T04:23:04.024Z,5.05
2023-04-08T04:25:31.247Z,6.97
2023-04-08T04:27:58.528Z,7.15
2023-04-08T04:30:26.405Z,5.03
2023-04-08T04:32:53.921Z,6.38
2023-04-08T04:35:21.468Z,6.70
2023-04-08T04:37:50.614Z,7.40
2023-04-08T04:40:18.044Z,5.25
2023-04-08T04:42:45.706Z,5.25
2023-04-08T04:45:13.049Z,7.07
2023-04-08T04:47:40.479Z,6.93
2023-04-08T04:50:08.376Z,5.53
2023-04-08T04:52:37.372Z,5.93
2023-04-08T04:55:05.097Z,7.43
2023-04-08T04:57:32.285Z,5.80
2023-04-08T04:59:59.694Z,7.93
2023-04-08T05:02:27.106Z,6.25
2023-04-08T05:04:56.121Z,8.20
2023-04-08T05:07:23.371Z,7.25
2023-04-08T05:09:51.050Z,7.22
2023-04-08T05:12:18.382Z,7.63
2023-04-08T05:14:46.654Z,6.57
2023-04-08T05:17:14.201Z,6.07
2023-04-08T05:19:41.474Z,7.65
2023-04-08T05:22:08.687Z,6.35
2023-04-08T05:24:36.929Z,8.20
2023-04-08T05:27:04.121Z,8.10
2023-04-08T05:29:31.414Z,7.40
2023-04-08T05:31:59.398Z,5.93
2023-04-08T05:34:26.834Z,7.57
2023-04-08T05:36:54.217Z,8.68
2023-04-08T05:39:21.564Z,6.88
2023-04-08T05:41:48.832Z,8.50
2023-04-08T05:44:16.078Z,4.57
2023-04-08T05:46:43.327Z,6.28
2023-04-08T05:49:10.636Z,6.13
2023-04-08T05:51:38.321Z,6.95
2023-04-08T05:54:05.525Z,7.72
2023-04-08T05:56:32.824Z,7.45
2023-04-08T05:58:59.978Z,7.88
2023-04-08T06:01:27.412Z,9.57
2023-04-08T06:03:56.936Z,5.88
2023-04-08T06:06:26.653Z,4.68
2023-04-08T06:08:53.908Z,9.48
2023-04-08T06:11:21.156Z,7.07
2023-04-08T06:13:48.597Z,6.20
2023-04-08T06:16:20.322Z,6.68
2023-04-08T06:21:16.634Z,8.73
2023-04-08T06:23:43.886Z,9.13
2023-04-08T06:26:11.547Z,5.30
2023-04-08T06:28:38.776Z,7.18
2023-04-08T06:31:06.602Z,6.32
2023-04-08T06:33:33.854Z,4.93
2023-04-08T06:36:06.117Z,5.85
2023-04-08T06:38:34.052Z,5.97
2023-04-08T06:41:05.217Z,5.55
2023-04-08T06:43:33.038Z,9.00
2023-04-08T06:46:00.293Z,9.18
2023-04-08T06:48:33.433Z,6.95
2023-04-08T06:51:01.728Z,6.40
2023-04-08T06:53:33.174Z,6.90
2023-04-08T06:56:00.835Z,6.13
2023-04-08T06:58:28.075Z,7.32
2023-04-08T07:00:58.221Z,9.07
2023-04-08T07:03:25.557Z,4.65
2023-04-08T07:05:53.393Z,6.53
2023-04-08T07:08:20.948Z,7.22
2023-04-08T07:10:48.200Z,8.30
2023-04-08T07:13:15.435Z,4.78
2023-04-08T07:15:42.728Z,9.68
2023-04-08T07:18:09.946Z,8.88
2023-04-08T07:20:38.987Z,6.57
2023-04-08T07:23:06.259Z,10.10
2023-04-08T07:25:35.561Z,10.00
2023-04-08T07:28:02.935Z,9.10
2023-04-08T07:30:30.207Z,9.73
2023-04-08T07:33:00.049Z,10.23
2023-04-08T07:35:28.348Z,7.75
2023-04-08T07:37:55.775Z,7.30
2023-04-08T07:40:23.201Z,6.22
2023-04-08T07:42:50.600Z,6.35
2023-04-08T07:45:17.950Z,4.55
2023-04-08T07:47:45.239Z,7.20
2023-04-08T07:50:12.542Z,6.75
2023-04-08T07:52:39.843Z,10.15
2023-04-08T07:55:07.450Z,6.45
2023-04-08T07:57:34.664Z,7.13
2023-04-08T08:00:02.134Z,5.85
2023-04-08T08:02:40.432Z,8.73
2023-04-08T08:05:08.230Z,9.55
2023-04-08T08:07:35.627Z,6.60
2023-04-08T08:10:02.858Z,8.43
2023-04-08T08:12:30.083Z,8.27
2023-04-08T08:14:59.615Z,6.50
2023-04-08T08:17:29.229Z,8.60
2023-04-08T08:19:56.749Z,7.50
2023-04-08T08:22:24.039Z,8.13
2023-04-08T08:24:56.841Z,7.88
2023-04-08T08:27:24.408Z,6.40
2023-04-08T08:29:51.818Z,6.88
2023-04-08T08:32:19.551Z,5.95
2023-04-08T08:34:46.773Z,7.30
2023-04-08T08:37:14.067Z,5.75
2023-04-08T08:39:41.399Z,7.07
2023-04-08T08:42:28.089Z,7.00
2023-04-08T08:44:55.789Z,5.90
2023-04-08T08:47:23.216Z,6.13
2023-04-08T08:49:50.630Z,7.53
2023-04-08T08:52:18.835Z,6.80
2023-04-08T08:54:46.671Z,4.55
2023-04-08T08:57:20.845Z,7.30
2023-04-08T08:59:48.232Z,6.25
2023-04-08T09:02:27.311Z,6.78
2023-04-08T09:04:59.152Z,7.28
2023-04-08T09:07:28.295Z,8.23
2023-04-08T09:09:57.093Z,8.40
2023-04-08T09:12:25.497Z,8.98
2023-04-08T09:15:05.213Z,9.48
2023-04-08T09:17:38.037Z,8.55
2023-04-08T09:20:14.021Z,7.43
2023-04-08T09:23:01.351Z,7.60
2023-04-08T09:25:31.240Z,7.32
2023-04-08T09:27:59.060Z,8.77
2023-04-08T09:30:27.872Z,7.35
2023-04-08T09:32:57.401Z,8.18
2023-04-08T09:35:26.013Z,8.80
2023-04-08T09:37:53.408Z,7.22
2023-04-08T09:40:21.015Z,7.05
2023-04-08T09:42:52.460Z,5.95
2023-04-08T09:45:20.182Z,9.23
2023-04-08T09:47:58.678Z,6.20
2023-04-08T09:50:32.110Z,9.98
2023-04-08T09:53:22.768Z,7.65
2023-04-08T09:55:53.948Z,6.57
2023-04-08T09:58:29.648Z,9.18
2023-04-08T10:00:58.076Z,6.57
2023-04-08T10:03:25.380Z,8.23
2023-04-08T10:05:54.830Z,8.10
2023-04-08T10:08:24.341Z,8.77
2023-04-08T10:10:51.893Z,7.00
2023-04-08T10:13:19.762Z,8.15
2023-04-08T10:15:48.177Z,7.18
2023-04-08T10:18:18.672Z,5.57
2023-04-08T10:20:47.276Z,8.25
2023-04-08T10:23:16.978Z,8.77
2023-04-08T10:25:48.848Z,9.15
2023-04-08T10:28:18.303Z,8.70
2023-04-08T10:30:56.287Z,8.80
2023-04-08T10:33:29.898Z,9.25
2023-04-08T10:36:10.662Z,9.15
2023-04-08T10:38:39.072Z,8.93
2023-04-08T10:41:06.456Z,9.20
2023-04-08T10:43:35.159Z,9.70
2023-04-08T10:46:03.187Z,9.82
2023-04-08T10:48:30.844Z,9.50
2023-04-08T10:51:00.046Z,9.32
2023-04-08T10:53:28.748Z,8.68
2023-04-08T10:56:18.547Z,9.35
2023-04-08T10:58:51.128Z,8.98
2023-04-08T11:03:46.238Z,8.88
2023-04-08T11:06:13.964Z,7.60
2023-04-08T11:08:41.964Z,9.25
2023-04-08T11:11:11.434Z,8.18
2023-04-08T11:13:52.937Z,9.00
2023-04-08T11:16:24.276Z,9.30
2023-04-08T11:18:52.079Z,8.45
2023-04-08T11:21:20.543Z,7.82
2023-04-08T11:23:52.435Z,8.25
2023-04-08T11:26:21.423Z,8.75
2023-04-08T11:28:51.251Z,7.22
2023-04-08T11:31:22.663Z,8.02
2023-04-08T11:33:55.330Z,6.80
2023-04-08T11:36:22.860Z,8.85
2023-04-08T11:38:50.230Z,8.13
2023-04-08T11:41:17.929Z,8.02
2023-04-08T11:43:56.829Z,7.63
2023-04-08T11:46:25.023Z,7.72
2023-04-08T11:49:07.061Z,8.00
2023-04-08T11:51:56.747Z,7.57
2023-04-08T11:54:31.100Z,8.10
2023-04-08T11:56:59.538Z,6.57
2023-04-08T11:59:28.920Z,8.75
2023-04-08T12:01:57.520Z,7.93
2023-04-08T12:04:25.220Z,7.25
2023-04-08T12:06:52.839Z,7.78
2023-04-08T12:09:20.188Z,7.63
2023-04-08T12:11:47.599Z,7.72
2023-04-08T12:14:15.601Z,7.20
2023-04-08T12:16:43.602Z,8.15
2023-04-08T12:19:11.008Z,5.90
2023-04-08T12:21:38.637Z,6.72
2023-04-08T12:24:06.120Z,8.00
2023-04-08T12:26:33.353Z,7.38
2023-04-08T12:29:01.106Z,7.40
2023-04-08T12:31:28.868Z,8.25
2023-04-08T12:33:56.229Z,8.75
2023-04-08T12:36:23.642Z,8.40
2023-04-08T12:38:51.235Z,9.02
2023-04-08T12:41:18.715Z,9.68
2023-04-08T12:43:46.215Z,7.22
2023-04-08T12:46:13.742Z,8.00
2023-04-08T12:48:41.105Z,7.50
2023-04-08T12:51:10.640Z,6.10
2023-04-08T12:53:38.077Z,6.43
2023-04-08T12:56:05.806Z,5.78
2023-04-08T12:58:33.208Z,5.60
2023-04-08T13:01:00.635Z,6.47
2023-04-08T13:03:30.755Z,6.32
2023-04-08T13:05:59.522Z,6.38
2023-04-08T13:08:26.922Z,6.78
2023-04-08T13:10:55.207Z,5.15
2023-04-08T13:13:22.567Z,6.28
2023-04-08T13:15:49.896Z,5.95
2023-04-08T13:18:17.447Z,5.72
2023-04-08T13:20:44.705Z,7.47
2023-04-08T13:23:12.329Z,8.45
2023-04-08T13:25:39.679Z,8.45
2023-04-08T13:28:06.983Z,8.77
2023-04-08T13:30:34.458Z,8.38
2023-04-08T13:33:01.935Z,7.78
2023-04-08T13:35:29.344Z,7.93
2023-04-08T13:37:56.726Z,6.22
2023-04-08T13:40:24.494Z,6.25
2023-04-08T13:42:52.130Z,5.88
2023-04-08T13:45:20.682Z,6.90
2023-04-08T13:47:47.935Z,7.88
2023-04-08T13:50:15.139Z,7.00
2023-04-08T13:52:42.455Z,6.40
2023-04-08T13:55:09.796Z,7.00
2023-04-08T13:57:40.329Z,6.32
2023-04-08T14:00:08.492Z,7.07
2023-04-08T14:02:38.539Z,6.07
2023-04-08T14:05:06.698Z,5.65
2023-04-08T14:07:34.064Z,5.50
2023-04-08T14:10:01.362Z,6.00
2023-04-08T14:12:28.579Z,4.10
2023-04-08T14:14:56.076Z,5.45
2023-04-08T14:17:23.445Z,7.15
2023-04-08T14:19:51.426Z,6.72
2023-04-08T14:22:19.452Z,5.70
2023-04-08T14:24:46.912Z,6.50
2023-04-08T14:27:14.201Z,6.80
2023-04-08T14:29:41.873Z,7.18
2023-04-08T14:32:09.289Z,7.65
2023-04-08T14:34:37.890Z,8.48
2023-04-08T14:37:05.678Z,8.48
2023-04-08T14:39:33.128Z,8.45
2023-04-08T14:42:00.610Z,9.02
2023-04-08T14:44:27.951Z,9.00
2023-04-08T14:46:55.261Z,8.73
2023-04-08T14:49:22.532Z,8.77
2023-04-08T14:51:50.809Z,8.48
2023-04-08T14:54:19.891Z,8.65
2023-04-08T14:56:47.179Z,6.30
2023-04-08T14:59:14.452Z,8.88
2023-04-08T15:01:41.860Z,5.85
2023-04-08T15:04:09.304Z,6.50
2023-04-08T15:06:37.053Z,8.13
2023-04-08T15:09:04.342Z,8.38
2023-04-08T15:11:31.520Z,8.27
2023-04-08T15:13:58.870Z,8.63
2023-04-08T15:16:26.070Z,7.95
2023-04-08T15:18:53.566Z,7.10
2023-04-08T15:21:23.139Z,9.00
2023-04-08T15:23:50.708Z,6.50
2023-04-08T15:26:18.072Z,7.68
2023-04-08T15:28:45.397Z,6.80
2023-04-08T15:31:12.635Z,6.90
2023-04-08T15:33:42.048Z,7.28
2023-04-08T15:36:09.740Z,6.93
2023-04-08T15:38:37.526Z,7.10
2023-04-08T15:41:04.820Z,6.88
2023-04-08T15:43:32.106Z,6.68
2023-04-08T15:45:59.267Z,5.95
2023-04-08T15:48:26.566Z,5.00
2023-04-08T15:50:53.816Z,6.10
2023-04-08T15:53:21.137Z,5.63
2023-04-08T15:55:48.470Z,6.28
2023-04-08T15:58:16.925Z,5.32
2023-04-08T16:00:44.256Z,5.45
2023-04-08T16:03:12.514Z,6.72
2023-04-08T16:05:41.992Z,6.20
2023-04-08T16:08:09.837Z,4.68
2023-04-08T16:10:37.720Z,6.55
2023-04-08T16:13:05.079Z,6.43
2023-04-08T16:15:32.298Z,4.60
2023-04-08T16:17:59.607Z,5.30
2023-04-08T16:20:27.449Z,4.40
2023-04-08T16:22:55.335Z,5.70
2023-04-08T16:25:22.773Z,4.22
2023-04-08T16:27:50.347Z,5.93
2023-04-08T16:30:17.762Z,4.93
2023-04-08T16:32:45.336Z,3.90
2023-04-08T16:35:13.587Z,4.43
2023-04-08T16:37:40.950Z,4.78
2023-04-08T16:40:08.847Z,4.25
2023-04-08T16:42:36.503Z,4.13
2023-04-08T16:45:03.897Z,6.28
2023-04-08T16:47:32.081Z,4.30
2023-04-08T16:49:59.661Z,4.22
2023-04-08T16:52:26.877Z,5.75
2023-04-08T16:54:55.085Z,4.00
2023-04-08T16:57:22.840Z,3.63
2023-04-08T16:59:50.173Z,4.35
2023-04-08T17:02:17.500Z,4.97
2023-04-08T17:04:49.124Z,4.57
2023-04-08T17:07:17.362Z,4.87
2023-04-08T17:09:44.662Z,3.78
2023-04-08T17:12:11.934Z,4.85
2023-04-08T17:14:39.154Z,4.22
2023-04-08T17:17:06.485Z,5.00
2023-04-08T17:19:33.803Z,3.60
2023-04-08T17:22:01.004Z,3.97
2023-04-08T17:24:28.254Z,5.15
2023-04-08T17:26:57.873Z,4.80
2023-04-08T17:29:25.262Z,4.32
2023-04-08T17:31:52.867Z,5.00
2023-04-08T17:34:20.214Z,4.50
2023-04-08T17:36:47.502Z,3.70
2023-04-08T17:39:14.815Z,6.88
2023-04-08T17:41:43.460Z,4.88
2023-04-08T17:44:12.101Z,4.63
2023-04-08T17:46:39.404Z,3.92
2023-04-08T17:49:06.641Z,4.53
2023-04-08T17:51:34.674Z,5.00
2023-04-08T17:54:01.914Z,4.45
2023-04-08T17:56:29.293Z,4.68
2023-04-08T17:58:56.665Z,4.40
2023-04-08T18:01:23.995Z,4.40
2023-04-08T18:03:52.174Z,3.85
2023-04-08T18:06:19.659Z,3.25
2023-04-08T18:08:47.070Z,3.92
2023-04-08T18:11:17.320Z,5.43
2023-04-08T18:13:44.610Z,4.60
2023-04-08T18:16:19.354Z,5.03
2023-04-08T18:18:47.434Z,4.22
2023-04-08T18:21:15.673Z,5.05
2023-04-08T18:23:42.950Z,4.25
2023-04-08T18:26:11.190Z,4.63
2023-04-08T18:28:38.550Z,5.57
2023-04-08T18:31:06.514Z,5.57
2023-04-08T18:33:34.702Z,4.70
2023-04-08T18:36:14.904Z,4.22
2023-04-08T18:38:42.292Z,5.20
2023-04-08T18:41:09.475Z,4.97
2023-04-08T18:43:36.731Z,4.68
2023-04-08T18:46:05.072Z,5.43
2023-04-08T18:48:33.496Z,5.38
2023-04-08T18:51:02.261Z,5.60
2023-04-08T18:53:29.693Z,4.20
2023-04-08T18:55:56.814Z,3.90
2023-04-08T18:58:24.086Z,5.63
2023-04-08T19:00:51.386Z,3.85
2023-04-08T19:03:18.875Z,4.88
2023-04-08T19:05:47.001Z,4.80
2023-04-08T19:08:14.231Z,5.05
2023-04-08T19:10:41.589Z,4.55
2023-04-08T19:13:09.130Z,4.88
2023-04-08T19:15:37.404Z,3.75
2023-04-08T19:18:06.173Z,4.72
2023-04-08T19:20:34.056Z,3.97
2023-04-08T19:23:01.324Z,4.45
2023-04-08T19:25:28.560Z,5.40
2023-04-08T19:27:56.204Z,5.60
2023-04-08T19:30:23.690Z,4.90
2023-04-08T19:32:51.915Z,5.75
2023-04-08T19:35:19.257Z,5.53
2023-04-08T19:37:46.479Z,4.68
2023-04-08T19:40:13.730Z,5.00
2023-04-08T19:42:40.989Z,5.95
2023-04-08T19:45:08.716Z,5.10
2023-04-08T19:47:36.027Z,5.88
2023-04-08T19:50:03.562Z,4.78
2023-04-08T19:52:31.922Z,4.45
2023-04-08T19:54:59.189Z,4.78
2023-04-08T19:57:26.738Z,4.90
2023-04-08T19:59:54.901Z,5.00
2023-04-08T20:02:22.528Z,5.00
2023-04-08T20:04:49.813Z,6.25
2023-04-08T20:07:17.028Z,4.63
2023-04-08T20:09:44.297Z,6.43
2023-04-08T20:12:11.708Z,5.03
2023-04-08T20:14:42.440Z,5.88
2023-04-08T20:17:09.676Z,4.45
2023-04-08T20:19:37.020Z,6.63
2023-04-08T20:22:04.322Z,6.82
2023-04-08T20:24:32.024Z,5.55
2023-04-08T20:27:00.481Z,5.55
2023-04-08T20:29:29.179Z,5.78
2023-04-08T20:31:56.409Z,5.60
2023-04-08T20:34:23.766Z,6.32
2023-04-08T20:36:51.358Z,5.88
2023-04-08T20:39:18.968Z,6.00
2023-04-08T20:41:46.265Z,6.05
2023-04-08T20:44:13.611Z,5.78
2023-04-08T20:46:43.688Z,6.13
2023-04-08T20:49:25.292Z,7.35
2023-04-08T20:51:52.512Z,7.97
2023-04-08T20:54:20.029Z,12.23
2023-04-08T20:56:47.296Z,10.57
2023-04-08T20:59:15.271Z,9.55
2023-04-08T21:01:43.052Z,8.65
2023-04-08T21:04:10.402Z,8.93
2023-04-08T21:06:38.002Z,8.30
2023-04-08T21:09:05.292Z,8.15
2023-04-08T21:11:32.491Z,7.00
2023-04-08T21:13:59.907Z,7.55
2023-04-08T21:16:29.564Z,7.32
2023-04-08T21:18:59.140Z,7.78
2023-04-08T21:21:26.774Z,8.30
2023-04-08T21:23:54.755Z,9.20
2023-04-08T21:26:22.592Z,9.82
2023-04-08T21:28:50.529Z,8.63
2023-04-08T21:31:18.210Z,8.45
2023-04-08T21:33:45.558Z,8.40
2023-04-08T21:36:12.998Z,6.95
2023-04-08T21:38:40.327Z,7.15
2023-04-08T21:41:07.627Z,6.78
2023-04-08T21:43:35.017Z,8.32
2023-04-08T21:46:02.324Z,6.95
2023-04-08T21:48:30.188Z,7.80
2023-04-08T21:50:57.525Z,6.80
2023-04-08T21:53:24.783Z,6.78
2023-04-08T21:55:52.475Z,8.07
2023-04-08T21:58:19.839Z,6.95
2023-04-08T22:00:47.538Z,6.78
2023-04-08T22:03:15.164Z,6.45
2023-04-08T22:05:42.617Z,6.90
2023-04-08T22:08:09.884Z,6.75
2023-04-08T22:10:37.948Z,7.50
2023-04-08T22:13:05.260Z,6.45
2023-04-08T22:15:32.565Z,7.22
2023-04-08T22:18:00.667Z,5.57
2023-04-08T22:20:28.697Z,6.40
2023-04-08T22:22:56.342Z,6.72
2023-04-08T22:25:23.650Z,6.40
2023-04-08T22:27:50.982Z,7.28
2023-04-08T22:30:18.340Z,6.53
2023-04-08T22:32:45.624Z,5.45
2023-04-08T22:35:13.001Z,6.55
2023-04-08T22:37:41.812Z,7.13
2023-04-08T22:40:09.699Z,7.65
2023-04-08T22:42:37.129Z,7.50
2023-04-08T22:45:05.480Z,8.48
2023-04-08T22:47:32.918Z,6.30
2023-04-08T22:50:00.368Z,5.65
2023-04-08T22:52:27.841Z,7.18
2023-04-08T22:54:55.139Z,9.23
2023-04-08T22:57:22.384Z,5.43
2023-04-08T22:59:49.882Z,10.10
2023-04-08T23:02:17.420Z,10.65
2023-04-08T23:04:44.865Z,9.98
2023-04-08T23:07:12.293Z,11.18
2023-04-08T23:09:39.612Z,10.88
2023-04-08T23:12:07.281Z,12.70
2023-04-08T23:14:34.540Z,10.93
2023-04-08T23:17:03.081Z,7.47
2023-04-08T23:19:32.396Z,11.80
2023-04-08T23:21:59.659Z,11.02
2023-04-08T23:24:26.909Z,8.15
2023-04-08T23:26:54.336Z,9.40
2023-04-08T23:29:21.696Z,9.13
2023-04-08T23:31:48.971Z,7.35
2023-04-08T23:34:16.368Z,7.30
2023-04-08T23:36:43.658Z,9.02
2023-04-08T23:39:11.022Z,10.35
2023-04-08T23:41:38.470Z,10.98
2023-04-08T23:44:05.957Z,10.98
2023-04-08T23:46:33.426Z,11.15
2023-04-08T23:49:00.814Z,11.32
2023-04-08T23:51:28.396Z,10.43
2023-04-08T23:53:56.442Z,11.77
2023-04-08T23:56:24.258Z,11.45
2023-04-08T23:58:51.937Z,10.60
